Addenbroke Island, British Columbia

7:11 AM PST on February 10, 2016 (GMT -0800)
Pruth Bay | | Change Station
CLOSE
Current Station
Personal Weather Station
Location: British Columbia, BRITISH COLUMBIA
Elevation: 26 ft
Nearby Weather Stations

Elev 26 ft 51.65 °N, 128.13 °W | Updated 2 minutes ago

Overcast
Overcast
53.3 °F
Feels Like 53.3 °F
N
1.8
Wind Variable Wind from West
Gusts 4.9 mph

Today
High -- | Low -- °F
--% Chance of Precip.
Yesterday
High -- | Low -- °F
Precip. -- in
Pressure 29.89 in
Visibility 9.0 miles
Clouds Scattered Clouds 6000 ft
Overcast 7600 ft
Dew Point 42 °F
Humidity 64%
Rainfall 0.00 in
Snow Depth Not available.
7:55 AM 5:36 PM
Waxing Crescent, 6% visible
METAR CBBC 101500Z AUTO 11003KT 070V220 9SM SCT060 OVC076 06/06 A2988 RMK SLP122
Pressure 29.89 in
Visibility 9.0 miles
Clouds Scattered Clouds 6000 ft
Overcast 7600 ft
Dew Point 42 °F
Humidity 64%
Rainfall 0.00 in
Snow Depth Not available.
7:55 AM 5:36 PM
Waxing Crescent, 6% visible
METAR CBBC 101500Z AUTO 11003KT 070V220 9SM SCT060 OVC076 06/06 A2988 RMK SLP122

10-Day Weather Forecast

No radar image for this location.
×

Almanac

Astronomy

Feb. 10, 2016 Rise Set
Actual Time
Civil Twilight
Nautical Twilight
Astronomical Twilight
Moon
Length of Visible Light
Length of Day
Tomorrow will be .
, % of the Moon is Illuminated

Today's Extremes

Country Highs Country Lows

Community

WunderPhotos

Upload Photos

1,891,857 photos uploaded!

WunderBlog® & News

Nearby

Air Quality

  Air Quality AQ Index Pollutant
Not available.

Snow Depth

Station Depth Elevation

Earthquake Activity

City Distance Mag. Time & Date
Minimum magnitude displayed is 2.5.

Coastal Water Temperatures

Place Temperature

Stations

Nearby Weather Stations

Station Location Temp. Windchill Dew Point Humidity Wind Precip. Elev Updated Type
                   

Watches & Warnings

There are currently no watches in effect.